createdAt,value
2019-03-03T00:00:59.940Z,107.20
2019-03-03T00:03:28.544Z,105.67
2019-03-03T00:05:57.163Z,108.10
2019-03-03T00:08:25.681Z,108.73
2019-03-03T00:10:54.404Z,115.40
2019-03-03T00:13:23.184Z,120.23
2019-03-03T00:15:52.015Z,119.97
2019-03-03T00:18:20.662Z,117.00
2019-03-03T00:21:07.659Z,119.23
2019-03-03T00:23:38.154Z,116.70
2019-03-03T00:26:06.930Z,115.57
2019-03-03T00:28:35.764Z,114.63
2019-03-03T00:31:04.513Z,116.43
2019-03-03T00:33:33.312Z,114.83
2019-03-03T00:36:02.077Z,111.70
2019-03-03T00:38:48.847Z,109.97
2019-03-03T00:41:37.720Z,109.37
2019-03-03T00:44:22.233Z,118.00
2019-03-03T00:47:10.255Z,116.03
2019-03-03T00:49:56.390Z,113.80
2019-03-03T00:52:38.241Z,102.50
2019-03-03T00:55:16.323Z,97.03
2019-03-03T00:58:04.093Z,99.90
2019-03-03T01:01:07.152Z,106.27
2019-03-03T01:03:47.583Z,104.07
2019-03-03T01:06:28.861Z,100.27
2019-03-03T01:09:14.871Z,120.07
2019-03-03T01:11:58.301Z,131.17
2019-03-03T01:14:44.811Z,131.97
2019-03-03T01:17:51.410Z,134.00
2019-03-03T01:20:48.145Z,133.67
2019-03-03T01:23:48.153Z,132.17
2019-03-03T01:26:16.699Z,125.63
2019-03-03T01:28:45.367Z,121.00
2019-03-03T01:31:14.144Z,122.53
2019-03-03T01:33:42.942Z,118.73
2019-03-03T01:36:11.761Z,122.67
2019-03-03T01:38:40.684Z,123.07
2019-03-03T01:41:09.512Z,121.50
2019-03-03T01:43:38.036Z,123.97
2019-03-03T01:46:06.832Z,121.57
2019-03-03T01:48:35.368Z,129.77
2019-03-03T01:51:04.240Z,136.23
2019-03-03T01:53:32.886Z,134.47
2019-03-03T01:56:01.618Z,128.73
2019-03-03T01:58:30.190Z,123.47
2019-03-03T02:00:59.013Z,122.03
2019-03-03T02:03:27.955Z,122.00
2019-03-03T02:05:56.721Z,122.53
2019-03-03T02:08:25.415Z,127.30
2019-03-03T02:10:54.298Z,104.83
2019-03-03T02:13:23.292Z,134.13
2019-03-03T02:15:52.011Z,142.40
2019-03-03T02:18:20.689Z,137.10
2019-03-03T02:20:49.337Z,138.80
2019-03-03T02:23:18.099Z,139.70
2019-03-03T02:25:47.772Z,136.50
2019-03-03T02:28:16.497Z,102.00
2019-03-03T02:30:45.350Z,122.40
2019-03-03T02:33:14.356Z,118.90
2019-03-03T02:35:42.981Z,111.10
2019-03-03T02:38:11.696Z,102.47
2019-03-03T02:40:40.400Z,84.77
2019-03-03T02:43:09.183Z,71.83
2019-03-03T02:45:37.897Z,62.43
2019-03-03T02:48:06.563Z,67.13
2019-03-03T02:50:35.189Z,66.27
2019-03-03T02:53:03.843Z,65.27
2019-03-03T02:55:32.607Z,59.13
2019-03-03T02:58:01.164Z,57.07
2019-03-03T03:00:29.895Z,53.60
2019-03-03T03:02:59.895Z,50.40
2019-03-03T03:05:46.605Z,54.67
2019-03-03T03:08:22.399Z,78.03
2019-03-03T03:11:28.745Z,74.57
2019-03-03T03:14:06.091Z,65.93
2019-03-03T03:17:09.287Z,60.87
2019-03-03T03:19:48.673Z,63.30
2019-03-03T03:22:36.866Z,62.23
2019-03-03T03:25:28.688Z,60.53
2019-03-03T03:28:11.770Z,60.50
2019-03-03T03:30:54.876Z,60.20
2019-03-03T03:33:41.510Z,58.97
2019-03-03T03:36:18.958Z,57.53
2019-03-03T03:39:06.890Z,59.37
2019-03-03T03:41:44.115Z,59.17
2019-03-03T03:44:38.339Z,56.03
2019-03-03T03:47:28.778Z,58.53
2019-03-03T03:50:15.451Z,56.43
2019-03-03T03:53:15.126Z,56.10
2019-03-03T03:56:06.069Z,55.13
2019-03-03T03:58:54.105Z,52.87
2019-03-03T04:01:40.936Z,52.13
2019-03-03T04:04:32.345Z,52.27
2019-03-03T04:07:08.861Z,51.87
2019-03-03T04:09:42.402Z,48.43
2019-03-03T04:12:33.523Z,48.97
2019-03-03T04:15:24.446Z,48.13
2019-03-03T04:18:21.894Z,49.53
2019-03-03T04:21:05.887Z,47.40
2019-03-03T04:23:52.608Z,47.23
2019-03-03T04:26:44.919Z,44.53
2019-03-03T04:29:38.596Z,45.63
2019-03-03T04:32:26.707Z,43.87
2019-03-03T04:35:32.996Z,46.80
2019-03-03T04:38:26.984Z,43.37
2019-03-03T04:43:26.230Z,43.20
2019-03-03T04:46:17.686Z,42.43
2019-03-03T04:49:07.392Z,43.63
2019-03-03T04:51:59.034Z,41.53
2019-03-03T04:54:40.651Z,41.47
2019-03-03T04:57:20.888Z,41.20
2019-03-03T05:00:12.155Z,45.38
2019-03-03T05:03:02.012Z,41.57
2019-03-03T05:05:57.384Z,39.57
2019-03-03T05:08:45.388Z,39.77
2019-03-03T05:12:08.752Z,40.27
2019-03-03T05:14:38.687Z,42.67
2019-03-03T05:17:16.895Z,42.30
2019-03-03T05:19:49.794Z,43.00
2019-03-03T05:22:18.360Z,43.67
2019-03-03T05:24:46.933Z,43.60
2019-03-03T05:27:15.749Z,45.00
2019-03-03T05:29:44.621Z,43.87
2019-03-03T05:32:13.294Z,45.53
2019-03-03T05:34:42.064Z,44.20
2019-03-03T05:37:12.798Z,44.87
2019-03-03T05:39:41.464Z,42.70
2019-03-03T05:42:11.081Z,42.07
2019-03-03T05:44:39.696Z,44.73
2019-03-03T05:47:10.447Z,40.63
2019-03-03T05:49:39.183Z,43.60
2019-03-03T05:52:07.935Z,43.33
2019-03-03T05:54:36.825Z,39.17
2019-03-03T05:57:05.680Z,44.83
2019-03-03T05:59:34.488Z,44.40
2019-03-03T06:02:03.288Z,42.17
2019-03-03T06:04:31.981Z,40.47
2019-03-03T06:07:00.739Z,39.13
2019-03-03T06:09:32.068Z,36.60
2019-03-03T06:12:01.481Z,35.70
2019-03-03T06:14:31.482Z,34.80
2019-03-03T06:17:00.160Z,36.63
2019-03-03T06:19:28.833Z,34.53
2019-03-03T06:21:57.351Z,33.17
2019-03-03T06:24:26.122Z,34.13
2019-03-03T06:26:54.582Z,31.20
2019-03-03T06:29:23.429Z,31.30
2019-03-03T06:31:51.894Z,31.53
2019-03-03T06:34:20.599Z,30.80
2019-03-03T06:36:49.295Z,29.87
2019-03-03T06:39:17.799Z,29.00
2019-03-03T06:41:46.475Z,31.00
2019-03-03T06:44:14.981Z,30.20
2019-03-03T06:46:43.749Z,29.33
2019-03-03T06:49:12.398Z,26.87
2019-03-03T06:51:41.053Z,28.07
2019-03-03T06:54:09.841Z,28.63
2019-03-03T06:56:38.631Z,27.77
2019-03-03T06:59:08.040Z,29.97
2019-03-03T07:01:37.094Z,30.33
2019-03-03T07:04:05.910Z,29.53
2019-03-03T07:06:34.709Z,30.27
2019-03-03T07:09:04.095Z,29.07
2019-03-03T07:11:34.413Z,31.80
2019-03-03T07:14:06.163Z,33.90
2019-03-03T07:16:34.903Z,40.03
2019-03-03T07:19:03.806Z,35.07
2019-03-03T07:21:32.347Z,30.00
2019-03-03T07:24:01.077Z,30.73
2019-03-03T07:26:29.601Z,33.53
2019-03-03T07:28:58.190Z,33.93
2019-03-03T07:31:26.853Z,33.07
2019-03-03T07:33:58.642Z,32.53
2019-03-03T07:36:27.239Z,35.13
2019-03-03T07:38:56.084Z,35.07
2019-03-03T07:41:24.809Z,31.57
2019-03-03T07:43:53.674Z,32.27
2019-03-03T07:46:22.346Z,32.27
2019-03-03T07:48:50.941Z,31.83
2019-03-03T07:51:19.753Z,31.70
2019-03-03T07:53:48.287Z,32.50
2019-03-03T07:56:17.001Z,32.80
2019-03-03T07:58:45.493Z,33.10
2019-03-03T08:01:14.322Z,33.03
2019-03-03T08:03:43.007Z,34.73
2019-03-03T08:06:11.576Z,33.30
2019-03-03T08:08:41.331Z,33.67
2019-03-03T08:11:09.971Z,33.83
2019-03-03T08:13:38.574Z,33.47
2019-03-03T08:16:07.201Z,35.80
2019-03-03T08:18:35.953Z,36.93
2019-03-03T08:21:04.575Z,37.20
2019-03-03T08:23:33.404Z,38.20
2019-03-03T08:26:02.065Z,37.13
2019-03-03T08:28:30.739Z,38.07
2019-03-03T08:30:59.456Z,39.53
2019-03-03T08:33:28.142Z,40.77
2019-03-03T08:35:56.743Z,41.03
2019-03-03T08:38:25.414Z,39.93
2019-03-03T08:40:54.019Z,40.17
2019-03-03T08:43:45.043Z,41.30
2019-03-03T08:46:38.546Z,37.40
2019-03-03T08:49:21.431Z,29.03
2019-03-03T08:52:10.676Z,31.27
2019-03-03T08:55:10.821Z,31.77
2019-03-03T08:58:04.144Z,32.63
2019-03-03T09:00:40.877Z,31.93
2019-03-03T09:03:35.077Z,32.53
2019-03-03T09:06:12.537Z,32.87
2019-03-03T09:09:03.243Z,29.87
2019-03-03T09:11:44.064Z,31.03
2019-03-03T09:14:31.591Z,30.63
2019-03-03T09:17:19.774Z,31.80
2019-03-03T09:20:20.032Z,33.73
2019-03-03T09:23:00.488Z,34.53
2019-03-03T09:25:57.541Z,33.20
2019-03-03T09:28:48.469Z,33.83
2019-03-03T09:31:39.672Z,34.03
2019-03-03T09:34:21.774Z,33.37
2019-03-03T09:37:08.612Z,33.90
2019-03-03T09:39:58.683Z,33.47
2019-03-03T09:42:55.575Z,33.88
2019-03-03T09:45:39.192Z,32.97
2019-03-03T09:48:15.024Z,34.57
2019-03-03T09:51:00.699Z,34.37
2019-03-03T09:53:49.503Z,32.23
2019-03-03T09:56:47.489Z,32.17
2019-03-03T09:59:45.142Z,33.30
2019-03-03T10:02:39.612Z,33.40
2019-03-03T10:05:31.415Z,34.63
2019-03-03T10:08:22.821Z,32.60
2019-03-03T10:11:44.727Z,32.87
2019-03-03T10:14:53.228Z,32.63
2019-03-03T10:18:53.469Z,33.57
2019-03-03T10:22:08.865Z,32.97
2019-03-03T10:25:56.943Z,33.57
2019-03-03T10:29:14.429Z,32.63
2019-03-03T10:33:03.421Z,33.73
2019-03-03T10:36:23.579Z,33.23
2019-03-03T10:39:25.374Z,33.83
2019-03-03T10:42:39.447Z,31.17
2019-03-03T10:46:11.217Z,33.17
2019-03-03T10:50:02.123Z,35.80
2019-03-03T10:53:22.002Z,32.13
2019-03-03T10:56:13.679Z,30.43
2019-03-03T10:59:21.023Z,26.97
2019-03-03T11:02:21.212Z,32.20
2019-03-03T11:05:54.500Z,33.47
2019-03-03T11:09:52.830Z,35.37
2019-03-03T11:12:33.638Z,35.53
2019-03-03T11:15:47.709Z,35.67
2019-03-03T11:19:33.663Z,41.75
2019-03-03T11:23:13.619Z,38.33
2019-03-03T11:26:46.299Z,39.53
2019-03-03T11:30:14.409Z,39.43
2019-03-03T11:34:08.467Z,43.17
2019-03-03T11:37:16.287Z,45.10
2019-03-03T11:41:11.978Z,44.17
2019-03-03T11:44:41.287Z,47.60
2019-03-03T11:47:48.610Z,47.43
2019-03-03T11:50:53.616Z,47.93
2019-03-03T11:54:27.539Z,48.87
2019-03-03T11:58:00.479Z,50.13
2019-03-03T12:01:30.947Z,46.57
2019-03-03T12:04:41.944Z,42.33
2019-03-03T12:07:29.007Z,42.20
2019-03-03T12:10:21.845Z,40.97
2019-03-03T12:13:04.740Z,42.50
2019-03-03T12:16:13.639Z,40.43
2019-03-03T12:19:07.357Z,38.73
2019-03-03T12:22:03.776Z,41.97
2019-03-03T12:25:01.649Z,39.83
2019-03-03T12:28:01.256Z,40.00
2019-03-03T12:30:54.396Z,41.77
2019-03-03T12:33:39.439Z,39.47
2019-03-03T12:36:27.943Z,38.33
2019-03-03T12:39:24.940Z,34.93
2019-03-03T12:42:17.190Z,39.73
2019-03-03T12:45:12.907Z,42.00
2019-03-03T12:48:09.886Z,36.53
2019-03-03T12:51:10.940Z,33.83
2019-03-03T12:54:10.917Z,35.80
2019-03-03T12:57:07.983Z,35.63
2019-03-03T12:59:43.701Z,40.60
2019-03-03T13:02:46.757Z,40.63
2019-03-03T13:05:44.333Z,39.08
2019-03-03T13:08:35.816Z,39.57
2019-03-03T13:11:20.766Z,39.17
2019-03-03T13:14:35.391Z,41.50
2019-03-03T13:17:34.376Z,41.33
2019-03-03T13:20:26.181Z,47.50
2019-03-03T13:26:30.392Z,47.90
2019-03-03T13:29:31.072Z,49.17
2019-03-03T13:32:17.034Z,52.93
2019-03-03T13:35:29.995Z,53.13
2019-03-03T13:38:30.871Z,53.07
2019-03-03T13:41:22.614Z,53.63
2019-03-03T13:43:53.016Z,55.87
2019-03-03T13:46:23.013Z,54.00
2019-03-03T13:48:55.385Z,54.23
2019-03-03T13:51:26.841Z,49.70
2019-03-03T13:53:59.371Z,51.57
2019-03-03T13:56:35.505Z,53.10
2019-03-03T13:59:05.684Z,53.63
2019-03-03T14:01:34.391Z,49.40
2019-03-03T14:04:04.619Z,52.63
2019-03-03T14:06:33.494Z,51.07
2019-03-03T14:09:02.496Z,49.43
2019-03-03T14:11:33.224Z,46.27
2019-03-03T14:14:02.347Z,48.43
2019-03-03T14:16:31.591Z,49.53
2019-03-03T14:19:00.779Z,48.57
2019-03-03T14:21:29.713Z,47.57
2019-03-03T14:23:58.617Z,47.03
2019-03-03T14:26:27.612Z,46.23
2019-03-03T14:28:56.290Z,47.57
2019-03-03T14:31:25.216Z,44.10
2019-03-03T14:33:54.224Z,46.23
2019-03-03T14:36:23.110Z,44.13
2019-03-03T14:38:52.007Z,42.40
2019-03-03T14:41:20.930Z,43.80
2019-03-03T14:43:49.573Z,42.17
2019-03-03T14:46:18.669Z,43.10
2019-03-03T14:48:47.597Z,43.43
2019-03-03T14:51:16.643Z,45.23
2019-03-03T14:53:45.302Z,45.07
2019-03-03T14:56:14.280Z,44.13
2019-03-03T14:58:42.861Z,43.63
2019-03-03T15:01:18.634Z,47.30
2019-03-03T15:03:47.379Z,47.43
2019-03-03T15:06:24.188Z,44.73
2019-03-03T15:08:46.549Z,47.40
2019-03-03T15:11:15.332Z,48.70
2019-03-03T15:13:44.097Z,50.33
2019-03-03T15:16:13.029Z,51.67
2019-03-03T15:18:41.965Z,51.97
2019-03-03T15:21:10.992Z,50.30
2019-03-03T15:23:39.760Z,50.43
2019-03-03T15:26:08.500Z,48.03
2019-03-03T15:28:37.322Z,47.50
2019-03-03T15:31:05.998Z,47.00
2019-03-03T15:33:34.939Z,50.17
2019-03-03T15:36:03.770Z,51.43
2019-03-03T15:38:32.779Z,49.33
2019-03-03T15:41:01.748Z,51.40
2019-03-03T15:43:30.690Z,60.23
2019-03-03T15:45:59.333Z,62.10
2019-03-03T15:48:29.123Z,62.80
2019-03-03T15:50:57.996Z,65.13
2019-03-03T15:53:26.733Z,62.03
2019-03-03T15:55:55.960Z,62.50
2019-03-03T15:58:25.062Z,67.20
2019-03-03T16:00:54.120Z,65.97
2019-03-03T16:03:23.501Z,63.13
2019-03-03T16:05:52.925Z,65.13
2019-03-03T16:08:22.196Z,79.00
2019-03-03T16:10:52.233Z,76.67
2019-03-03T16:13:22.016Z,74.47
2019-03-03T16:15:52.109Z,84.33
2019-03-03T16:18:21.544Z,74.40
2019-03-03T16:20:54.559Z,67.13
2019-03-03T16:23:24.354Z,69.73
2019-03-03T16:25:55.377Z,77.43
2019-03-03T16:28:25.328Z,73.83
2019-03-03T16:30:55.409Z,63.70
2019-03-03T16:33:25.148Z,65.47
2019-03-03T16:35:54.948Z,71.90
2019-03-03T16:38:24.757Z,63.73
2019-03-03T16:40:54.777Z,62.53
2019-03-03T16:43:24.471Z,61.90
2019-03-03T16:45:55.410Z,62.27
2019-03-03T16:48:25.484Z,62.43
2019-03-03T16:50:55.235Z,61.60
2019-03-03T16:53:25.182Z,63.63
2019-03-03T16:55:54.933Z,62.17
2019-03-03T16:58:24.699Z,61.83
2019-03-03T17:00:54.756Z,61.13
2019-03-03T17:03:24.662Z,62.60
2019-03-03T17:05:55.207Z,61.10
2019-03-03T17:08:25.067Z,62.20
2019-03-03T17:10:55.067Z,63.97
2019-03-03T17:13:24.680Z,64.27
2019-03-03T17:15:59.712Z,63.40
2019-03-03T17:18:29.420Z,62.07
2019-03-03T17:21:00.174Z,64.00
2019-03-03T17:23:36.324Z,63.77
2019-03-03T17:26:09.341Z,62.20
2019-03-03T17:28:40.732Z,62.57
2019-03-03T17:31:12.292Z,61.33
2019-03-03T17:33:41.788Z,63.23
2019-03-03T17:36:11.535Z,63.93
2019-03-03T17:38:41.085Z,63.07
2019-03-03T17:41:13.606Z,67.20
2019-03-03T17:43:43.118Z,67.70
2019-03-03T17:46:12.834Z,69.00
2019-03-03T17:48:42.301Z,71.63
2019-03-03T17:51:13.617Z,69.30
2019-03-03T17:53:43.223Z,72.92
2019-03-03T17:56:12.686Z,66.13
2019-03-03T17:58:42.248Z,65.07
2019-03-03T18:01:11.755Z,65.77
2019-03-03T18:03:41.351Z,61.53
2019-03-03T18:06:14.532Z,58.17
2019-03-03T18:08:45.037Z,60.25
2019-03-03T18:11:14.594Z,57.73
2019-03-03T18:13:43.992Z,55.97
2019-03-03T18:16:13.472Z,55.13
2019-03-03T18:18:42.879Z,54.97
2019-03-03T18:21:12.398Z,56.10
2019-03-03T18:23:41.715Z,58.20
2019-03-03T18:26:12.310Z,58.40
2019-03-03T18:28:41.907Z,58.43
2019-03-03T18:31:12.155Z,56.97
2019-03-03T18:33:45.300Z,59.17
2019-03-03T18:36:16.327Z,57.47
2019-03-03T18:38:45.354Z,54.90
2019-03-03T18:41:14.758Z,55.33
2019-03-03T18:43:47.070Z,54.00
2019-03-03T18:46:16.296Z,57.40
2019-03-03T18:48:45.388Z,56.13
2019-03-03T18:51:15.554Z,54.43
2019-03-03T18:53:44.626Z,60.17
2019-03-03T18:56:14.094Z,59.60
2019-03-03T18:58:43.172Z,61.40
2019-03-03T19:01:12.232Z,62.23
2019-03-03T19:03:41.763Z,64.60
2019-03-03T19:06:11.352Z,64.93
2019-03-03T19:08:40.753Z,62.80
2019-03-03T19:11:10.089Z,62.27
2019-03-03T19:13:40.243Z,65.27
2019-03-03T19:16:09.430Z,65.17
2019-03-03T19:18:38.489Z,67.17
2019-03-03T19:21:07.676Z,66.60
2019-03-03T19:23:36.899Z,69.33
2019-03-03T19:26:06.010Z,71.73
2019-03-03T19:28:35.549Z,73.00
2019-03-03T19:31:05.043Z,72.17
2019-03-03T19:33:41.884Z,69.30
2019-03-03T19:36:11.318Z,67.60
2019-03-03T19:38:42.252Z,74.03
2019-03-03T19:41:11.518Z,76.70
2019-03-03T19:43:40.945Z,71.40
2019-03-03T19:46:10.429Z,71.07
2019-03-03T19:48:39.900Z,73.90
2019-03-03T19:51:09.424Z,70.37
2019-03-03T19:53:40.727Z,73.80
2019-03-03T19:56:10.375Z,74.10
2019-03-03T19:58:39.794Z,74.60
2019-03-03T20:01:09.209Z,69.90
2019-03-03T20:03:39.021Z,67.97
2019-03-03T20:06:08.384Z,70.67
2019-03-03T20:08:40.918Z,69.00
2019-03-03T20:11:11.120Z,72.57
2019-03-03T20:13:40.828Z,76.97
2019-03-03T20:16:11.823Z,72.87
2019-03-03T20:18:41.466Z,72.90
2019-03-03T20:21:10.657Z,75.13
2019-03-03T20:23:39.863Z,75.20
2019-03-03T20:26:09.094Z,81.00
2019-03-03T20:28:38.191Z,71.77
2019-03-03T20:31:07.191Z,71.87
2019-03-03T20:33:36.095Z,75.73
2019-03-03T20:36:05.278Z,69.73
2019-03-03T20:38:33.881Z,71.07
2019-03-03T20:41:10.530Z,72.87
2019-03-03T20:43:41.430Z,73.47
2019-03-03T20:46:10.343Z,70.33
2019-03-03T20:48:39.008Z,67.90
2019-03-03T20:51:07.905Z,68.80
2019-03-03T20:53:36.966Z,71.27
2019-03-03T20:56:05.746Z,73.07
2019-03-03T20:58:34.613Z,70.43
2019-03-03T21:01:03.389Z,69.27
2019-03-03T21:03:32.250Z,80.97
2019-03-03T21:06:02.042Z,77.63
2019-03-03T21:08:30.703Z,73.70
2019-03-03T21:10:59.676Z,72.83
2019-03-03T21:13:28.547Z,70.93
2019-03-03T21:15:58.050Z,69.07
2019-03-03T21:18:26.756Z,68.47
2019-03-03T21:20:55.532Z,68.13
2019-03-03T21:23:24.431Z,69.03
2019-03-03T21:25:53.385Z,66.97
2019-03-03T21:28:22.179Z,62.07
2019-03-03T21:30:50.870Z,65.07
2019-03-03T21:33:19.404Z,65.83
2019-03-03T21:35:48.059Z,71.80
2019-03-03T21:38:16.642Z,65.07
2019-03-03T21:40:45.380Z,65.83
2019-03-03T21:43:13.986Z,62.47
2019-03-03T21:45:42.592Z,65.27
2019-03-03T21:48:11.415Z,64.67
2019-03-03T21:50:40.120Z,63.83
2019-03-03T21:53:08.833Z,64.10
2019-03-03T21:55:37.579Z,67.63
2019-03-03T21:58:06.427Z,67.33
2019-03-03T22:00:36.961Z,73.10
2019-03-03T22:03:05.915Z,73.07
2019-03-03T22:05:34.908Z,75.27
2019-03-03T22:08:03.799Z,81.83
2019-03-03T22:10:33.037Z,83.83
2019-03-03T22:13:12.092Z,80.73
2019-03-03T22:15:40.757Z,83.83
2019-03-03T22:18:09.554Z,83.30
2019-03-03T22:20:38.249Z,82.73
2019-03-03T22:23:07.035Z,88.07
2019-03-03T22:25:35.758Z,85.27
2019-03-03T22:28:04.550Z,87.67
2019-03-03T22:30:33.314Z,86.17
2019-03-03T22:33:01.944Z,87.13
2019-03-03T22:35:30.534Z,86.77
2019-03-03T22:37:59.077Z,84.93
2019-03-03T22:40:27.909Z,86.73
2019-03-03T22:42:56.697Z,82.43
2019-03-03T22:45:25.481Z,86.63
2019-03-03T22:47:54.169Z,84.10
2019-03-03T22:50:23.416Z,86.57
2019-03-03T22:52:52.220Z,86.00
2019-03-03T22:55:20.887Z,86.37
2019-03-03T22:57:49.612Z,84.50
2019-03-03T23:00:45.378Z,83.53
2019-03-03T23:03:19.287Z,86.80
2019-03-03T23:06:06.077Z,87.27
2019-03-03T23:09:17.388Z,86.17
2019-03-03T23:12:21.781Z,87.30
2019-03-03T23:15:05.280Z,88.30
2019-03-03T23:18:05.335Z,87.70
2019-03-03T23:20:52.756Z,85.37
2019-03-03T23:24:27.497Z,87.87
2019-03-03T23:26:56.070Z,87.67
2019-03-03T23:29:24.688Z,89.43
2019-03-03T23:31:53.502Z,84.57
2019-03-03T23:34:22.071Z,86.30
2019-03-03T23:36:50.720Z,84.93
2019-03-03T23:39:20.413Z,86.67
2019-03-03T23:41:49.085Z,89.27
2019-03-03T23:44:17.972Z,86.67
2019-03-03T23:46:46.645Z,86.73
2019-03-03T23:49:15.142Z,84.87
2019-03-03T23:51:43.781Z,87.47
2019-03-03T23:54:12.548Z,86.80
2019-03-03T23:56:41.170Z,87.23
2019-03-03T23:59:09.880Z,84.47
